Main page
METAR-TAF:

METAR-TAF

Airports :

Istanbul Atatürk Airport

Istanbul Atatürk, Turkey

latitude: 40-58N, longitude: 028-49E, elevation: 48 m

Current weather observation

The report was made 15 minutes ago, at 01:50 UTC
Wind 6 kt from the North
Temperature 2°C
Humidity 93%
Pressure 1025 hPa
Visibility 10 km or more
no clouds below 1500 m and no cumulonimbus

METAR: LTBA 110150Z 35006KT CAVOK 02/01 Q1025 NOSIG RMK RWY23 VRB04KT

Time: 05:05 (02:05 UTC)

Forecast

The report was made 3 hours and 25 minutes ago, at 22:40 UTC
Forecast valid from 11 at 00 UTC to 12 at 06 UTC
Wind 2 kt from variable directions
Visibility 10 km or more
no clouds below 1500 m and no cumulonimbus
Temporary
from 11 at 10 UTC to 11 at 14 UTC
Wind 12 kt from the North
Scattered clouds at a height of 3000 ft
Probability 30% :
Temporary
from 12 at 02 UTC to 12 at 06 UTC
Visibility: 4000 m
Scattered clouds at a height of 1000 ft
mist

TAF: LTBA 102240Z 1100/1206 VRB02KT CAVOK TEMPO 1110/1114 01012KT SCT030 PROB30 TEMPO 1202/1206 4000 BR SCT010

Weather observations and forecasts of more than 4000 airports (METAR and TAF reports).

The available stations are represented by yellow and red dots on the map.

Hover mouse over dot to see the name of the station.

Then click to see weather observations and forecasts.

To change the map : click on the green buttons with a black cross to zoom in, on the green button with a dash to zoom out, or on the green arrows for adjacent maps.


METAR-TAF: